sensor_id;sensor_type;location;lat;lon;timestamp;temperature;humidity
15455;DHT22;21057;51.024;7.540;2022-12-18T00:01:53;-4.10;99.90
15455;DHT22;21057;51.024;7.540;2022-12-18T00:04:25;-4.10;99.90
15455;DHT22;21057;51.024;7.540;2022-12-18T00:06:52;-4.00;99.90
15455;DHT22;21057;51.024;7.540;2022-12-18T00:09:20;-4.10;99.90
15455;DHT22;21057;51.024;7.540;2022-12-18T00:11:46;-4.00;99.90
15455;DHT22;21057;51.024;7.540;2022-12-18T00:14:13;-4.00;99.90
15455;DHT22;21057;51.024;7.540;2022-12-18T00:16:43;-4.10;99.90
15455;DHT22;21057;51.024;7.540;2022-12-18T00:19:11;-4.10;99.90
15455;DHT22;21057;51.024;7.540;2022-12-18T00:21:43;-4.00;99.90
15455;DHT22;21057;51.024;7.540;2022-12-18T00:24:10;-3.90;99.90
15455;DHT22;21057;51.024;7.540;2022-12-18T00:26:38;-3.90;99.90
15455;DHT22;21057;51.024;7.540;2022-12-18T00:29:09;-3.90;99.90
15455;DHT22;21057;51.024;7.540;2022-12-18T00:31:37;-4.00;99.90
15455;DHT22;21057;51.024;7.540;2022-12-18T00:34:05;-4.00;99.90
15455;DHT22;21057;51.024;7.540;2022-12-18T00:36:34;-3.80;99.90
15455;DHT22;21057;51.024;7.540;2022-12-18T00:39:04;-3.70;99.90
15455;DHT22;21057;51.024;7.540;2022-12-18T00:41:31;-3.70;99.90
15455;DHT22;21057;51.024;7.540;2022-12-18T00:44:17;-3.70;99.90
15455;DHT22;21057;51.024;7.540;2022-12-18T00:46:44;-3.60;99.90
15455;DHT22;21057;51.024;7.540;2022-12-18T00:49:11;-3.40;99.90
15455;DHT22;21057;51.024;7.540;2022-12-18T00:51:38;-3.40;99.90
15455;DHT22;21057;51.024;7.540;2022-12-18T00:54:06;-3.30;99.90
15455;DHT22;21057;51.024;7.540;2022-12-18T00:56:35;-3.20;99.90
15455;DHT22;21057;51.024;7.540;2022-12-18T00:59:02;-3.20;99.90
15455;DHT22;21057;51.024;7.540;2022-12-18T01:01:29;-3.10;99.90
15455;DHT22;21057;51.024;7.540;2022-12-18T01:03:58;-3.00;99.90
15455;DHT22;21057;51.024;7.540;2022-12-18T01:06:25;-3.10;99.90
15455;DHT22;21057;51.024;7.540;2022-12-18T01:08:52;-3.10;99.90
15455;DHT22;21057;51.024;7.540;2022-12-18T01:11:22;-3.10;99.90
15455;DHT22;21057;51.024;7.540;2022-12-18T01:13:49;-3.10;99.90
15455;DHT22;21057;51.024;7.540;2022-12-18T01:16:17;-3.00;99.90
15455;DHT22;21057;51.024;7.540;2022-12-18T01:18:45;-3.10;99.90
15455;DHT22;21057;51.024;7.540;2022-12-18T01:21:14;-3.10;99.90
15455;DHT22;21057;51.024;7.540;2022-12-18T01:23:44;-3.20;99.90
15455;DHT22;21057;51.024;7.540;2022-12-18T01:26:13;-3.10;99.90
15455;DHT22;21057;51.024;7.540;2022-12-18T01:28:43;-3.10;99.90
15455;DHT22;21057;51.024;7.540;2022-12-18T01:31:16;-3.00;99.90
15455;DHT22;21057;51.024;7.540;2022-12-18T01:33:43;-3.00;99.90
15455;DHT22;21057;51.024;7.540;2022-12-18T01:36:16;-3.00;99.90
15455;DHT22;21057;51.024;7.540;2022-12-18T01:38:43;-3.00;99.90
15455;DHT22;21057;51.024;7.540;2022-12-18T01:41:11;-3.10;99.90
15455;DHT22;21057;51.024;7.540;2022-12-18T01:43:51;-3.10;99.90
15455;DHT22;21057;51.024;7.540;2022-12-18T01:46:21;-3.00;99.90
15455;DHT22;21057;51.024;7.540;2022-12-18T01:48:51;-3.10;99.90
15455;DHT22;21057;51.024;7.540;2022-12-18T01:51:19;-3.10;99.90
15455;DHT22;21057;51.024;7.540;2022-12-18T01:53:47;-3.10;99.90
15455;DHT22;21057;51.024;7.540;2022-12-18T01:56:16;-3.10;99.90
15455;DHT22;21057;51.024;7.540;2022-12-18T01:58:50;-3.10;99.90
15455;DHT22;21057;51.024;7.540;2022-12-18T02:01:20;-3.10;99.90
15455;DHT22;21057;51.024;7.540;2022-12-18T02:03:48;-3.00;99.90
15455;DHT22;21057;51.024;7.540;2022-12-18T02:06:19;-3.00;99.90
15455;DHT22;21057;51.024;7.540;2022-12-18T02:08:59;-3.10;99.90
15455;DHT22;21057;51.024;7.540;2022-12-18T02:11:39;-3.00;99.90
15455;DHT22;21057;51.024;7.540;2022-12-18T02:14:16;-3.00;99.90
15455;DHT22;21057;51.024;7.540;2022-12-18T02:16:49;-3.00;99.90
15455;DHT22;21057;51.024;7.540;2022-12-18T02:19:33;-3.00;99.90
15455;DHT22;21057;51.024;7.540;2022-12-18T02:22:29;-3.10;99.90
15455;DHT22;21057;51.024;7.540;2022-12-18T02:25:13;-3.30;99.90
15455;DHT22;21057;51.024;7.540;2022-12-18T02:27:45;-3.20;99.90
15455;DHT22;21057;51.024;7.540;2022-12-18T02:30:14;-3.20;99.90
15455;DHT22;21057;51.024;7.540;2022-12-18T02:32:43;-3.30;99.90
15455;DHT22;21057;51.024;7.540;2022-12-18T02:35:13;-3.40;99.90
15455;DHT22;21057;51.024;7.540;2022-12-18T02:37:40;-3.40;99.90
15455;DHT22;21057;51.024;7.540;2022-12-18T02:40:09;-3.40;99.90
15455;DHT22;21057;51.024;7.540;2022-12-18T02:42:37;-3.50;99.90
15455;DHT22;21057;51.024;7.540;2022-12-18T02:45:06;-3.60;99.90
15455;DHT22;21057;51.024;7.540;2022-12-18T02:47:37;-3.50;99.90
15455;DHT22;21057;51.024;7.540;2022-12-18T02:50:10;-3.50;99.90
15455;DHT22;21057;51.024;7.540;2022-12-18T02:52:48;-3.40;99.90
15455;DHT22;21057;51.024;7.540;2022-12-18T02:55:24;-3.40;99.90
15455;DHT22;21057;51.024;7.540;2022-12-18T02:57:59;-3.40;99.90
15455;DHT22;21057;51.024;7.540;2022-12-18T03:00:33;-3.40;99.90
15455;DHT22;21057;51.024;7.540;2022-12-18T03:03:05;-3.40;99.90
15455;DHT22;21057;51.024;7.540;2022-12-18T03:05:36;-3.30;99.90
15455;DHT22;21057;51.024;7.540;2022-12-18T03:08:08;-3.30;99.90
15455;DHT22;21057;51.024;7.540;2022-12-18T03:10:42;-3.20;99.90
15455;DHT22;21057;51.024;7.540;2022-12-18T03:13:15;-3.20;99.90
15455;DHT22;21057;51.024;7.540;2022-12-18T03:15:47;-3.30;99.90
15455;DHT22;21057;51.024;7.540;2022-12-18T03:18:18;-3.30;99.90
15455;DHT22;21057;51.024;7.540;2022-12-18T03:20:48;-3.30;99.90
15455;DHT22;21057;51.024;7.540;2022-12-18T03:23:19;-3.50;99.90
15455;DHT22;21057;51.024;7.540;2022-12-18T03:25:47;-3.50;99.90
15455;DHT22;21057;51.024;7.540;2022-12-18T03:28:19;-3.50;99.90
15455;DHT22;21057;51.024;7.540;2022-12-18T03:30:52;-3.40;99.90
15455;DHT22;21057;51.024;7.540;2022-12-18T03:33:25;-3.40;99.90
15455;DHT22;21057;51.024;7.540;2022-12-18T03:35:53;-3.20;99.90
15455;DHT22;21057;51.024;7.540;2022-12-18T03:38:20;-3.20;99.90
15455;DHT22;21057;51.024;7.540;2022-12-18T03:40:56;-3.30;99.90
15455;DHT22;21057;51.024;7.540;2022-12-18T03:43:34;-3.40;99.90
15455;DHT22;21057;51.024;7.540;2022-12-18T03:46:10;-3.40;99.90
15455;DHT22;21057;51.024;7.540;2022-12-18T03:48:42;-3.50;99.90
15455;DHT22;21057;51.024;7.540;2022-12-18T03:51:14;-3.40;99.90
15455;DHT22;21057;51.024;7.540;2022-12-18T03:53:48;-3.50;99.90
15455;DHT22;21057;51.024;7.540;2022-12-18T03:56:18;-3.40;99.90
15455;DHT22;21057;51.024;7.540;2022-12-18T03:58:48;-3.40;99.90
15455;DHT22;21057;51.024;7.540;2022-12-18T04:01:17;-3.40;99.90
15455;DHT22;21057;51.024;7.540;2022-12-18T04:03:48;-3.50;99.90
15455;DHT22;21057;51.024;7.540;2022-12-18T04:06:16;-3.40;99.90
15455;DHT22;21057;51.024;7.540;2022-12-18T04:08:44;-3.40;99.90
15455;DHT22;21057;51.024;7.540;2022-12-18T04:11:11;-3.40;99.90
15455;DHT22;21057;51.024;7.540;2022-12-18T04:13:39;-3.30;99.90
15455;DHT22;21057;51.024;7.540;2022-12-18T04:16:06;-3.40;99.90
15455;DHT22;21057;51.024;7.540;2022-12-18T04:18:36;-3.50;99.90
15455;DHT22;21057;51.024;7.540;2022-12-18T04:21:03;-3.60;99.90
15455;DHT22;21057;51.024;7.540;2022-12-18T04:23:30;-3.70;99.90
15455;DHT22;21057;51.024;7.540;2022-12-18T04:25:57;-3.80;99.90
15455;DHT22;21057;51.024;7.540;2022-12-18T04:28:23;-3.90;99.90
15455;DHT22;21057;51.024;7.540;2022-12-18T04:30:50;-4.00;99.90
15455;DHT22;21057;51.024;7.540;2022-12-18T04:33:18;-4.00;99.90
15455;DHT22;21057;51.024;7.540;2022-12-18T04:35:46;-4.00;99.90
15455;DHT22;21057;51.024;7.540;2022-12-18T04:38:13;-4.00;99.90
15455;DHT22;21057;51.024;7.540;2022-12-18T04:40:40;-4.00;99.90
15455;DHT22;21057;51.024;7.540;2022-12-18T04:43:07;-4.00;99.90
15455;DHT22;21057;51.024;7.540;2022-12-18T04:45:34;-4.00;99.90
15455;DHT22;21057;51.024;7.540;2022-12-18T04:48:01;-4.10;99.90
15455;DHT22;21057;51.024;7.540;2022-12-18T04:50:29;-4.30;99.90
15455;DHT22;21057;51.024;7.540;2022-12-18T04:52:57;-4.20;99.90
15455;DHT22;21057;51.024;7.540;2022-12-18T04:55:24;-4.20;99.90
15455;DHT22;21057;51.024;7.540;2022-12-18T04:57:51;-4.30;99.90
15455;DHT22;21057;51.024;7.540;2022-12-18T05:00:18;-4.20;99.90
15455;DHT22;21057;51.024;7.540;2022-12-18T05:02:45;-4.10;99.90
15455;DHT22;21057;51.024;7.540;2022-12-18T05:05:12;-4.10;99.90
15455;DHT22;21057;51.024;7.540;2022-12-18T05:07:39;-4.00;99.90
15455;DHT22;21057;51.024;7.540;2022-12-18T05:10:08;-3.90;99.90
15455;DHT22;21057;51.024;7.540;2022-12-18T05:12:35;-3.90;99.90
15455;DHT22;21057;51.024;7.540;2022-12-18T05:15:22;-3.80;99.90
15455;DHT22;21057;51.024;7.540;2022-12-18T05:17:49;-3.90;99.90
15455;DHT22;21057;51.024;7.540;2022-12-18T05:20:16;-3.80;99.90
15455;DHT22;21057;51.024;7.540;2022-12-18T05:22:43;-3.80;99.90
15455;DHT22;21057;51.024;7.540;2022-12-18T05:25:11;-3.70;99.90
15455;DHT22;21057;51.024;7.540;2022-12-18T05:27:38;-3.70;99.90
15455;DHT22;21057;51.024;7.540;2022-12-18T05:30:06;-3.70;99.90
15455;DHT22;21057;51.024;7.540;2022-12-18T05:32:33;-3.70;99.90
15455;DHT22;21057;51.024;7.540;2022-12-18T05:35:00;-3.70;99.90
15455;DHT22;21057;51.024;7.540;2022-12-18T05:37:27;-3.70;99.90
15455;DHT22;21057;51.024;7.540;2022-12-18T05:39:54;-3.50;99.90
15455;DHT22;21057;51.024;7.540;2022-12-18T05:42:22;-3.40;99.90
15455;DHT22;21057;51.024;7.540;2022-12-18T05:44:49;-3.40;99.90
15455;DHT22;21057;51.024;7.540;2022-12-18T05:47:16;-3.30;99.90
15455;DHT22;21057;51.024;7.540;2022-12-18T05:49:43;-3.40;99.90
15455;DHT22;21057;51.024;7.540;2022-12-18T05:52:10;-3.20;99.90
15455;DHT22;21057;51.024;7.540;2022-12-18T05:54:37;-3.20;99.90
15455;DHT22;21057;51.024;7.540;2022-12-18T05:57:04;-3.20;99.90
15455;DHT22;21057;51.024;7.540;2022-12-18T05:59:32;-3.30;99.90
15455;DHT22;21057;51.024;7.540;2022-12-18T06:01:59;-3.30;99.90
15455;DHT22;21057;51.024;7.540;2022-12-18T06:04:27;-3.30;99.90
15455;DHT22;21057;51.024;7.540;2022-12-18T06:06:54;-3.10;99.90
15455;DHT22;21057;51.024;7.540;2022-12-18T06:09:21;-3.10;99.90
15455;DHT22;21057;51.024;7.540;2022-12-18T06:11:48;-3.10;99.90
15455;DHT22;21057;51.024;7.540;2022-12-18T06:14:14;-3.10;99.90
15455;DHT22;21057;51.024;7.540;2022-12-18T06:16:44;-3.10;99.90
15455;DHT22;21057;51.024;7.540;2022-12-18T06:19:14;-3.00;99.90
15455;DHT22;21057;51.024;7.540;2022-12-18T06:21:41;-3.10;99.90
15455;DHT22;21057;51.024;7.540;2022-12-18T06:24:08;-3.00;99.90
15455;DHT22;21057;51.024;7.540;2022-12-18T06:26:37;-3.00;99.90
15455;DHT22;21057;51.024;7.540;2022-12-18T06:29:04;-2.80;99.90
15455;DHT22;21057;51.024;7.540;2022-12-18T06:31:31;-2.90;99.90
15455;DHT22;21057;51.024;7.540;2022-12-18T06:34:02;-2.90;99.90
15455;DHT22;21057;51.024;7.540;2022-12-18T06:36:29;-2.70;99.90
15455;DHT22;21057;51.024;7.540;2022-12-18T06:38:56;-2.80;99.90
15455;DHT22;21057;51.024;7.540;2022-12-18T06:41:23;-2.90;99.90
15455;DHT22;21057;51.024;7.540;2022-12-18T06:43:53;-2.80;99.90
15455;DHT22;21057;51.024;7.540;2022-12-18T06:46:20;-2.80;99.90
15455;DHT22;21057;51.024;7.540;2022-12-18T06:48:48;-2.70;99.90
15455;DHT22;21057;51.024;7.540;2022-12-18T06:51:18;-2.70;99.90
15455;DHT22;21057;51.024;7.540;2022-12-18T06:53:45;-2.70;99.90
15455;DHT22;21057;51.024;7.540;2022-12-18T06:56:13;-2.80;99.90
15455;DHT22;21057;51.024;7.540;2022-12-18T06:58:40;-2.80;99.90
15455;DHT22;21057;51.024;7.540;2022-12-18T07:01:08;-2.80;99.90
15455;DHT22;21057;51.024;7.540;2022-12-18T07:03:35;-2.70;99.90
15455;DHT22;21057;51.024;7.540;2022-12-18T07:06:02;-2.90;99.90
15455;DHT22;21057;51.024;7.540;2022-12-18T07:08:31;-2.80;99.90
15455;DHT22;21057;51.024;7.540;2022-12-18T07:10:58;-2.90;99.90
15455;DHT22;21057;51.024;7.540;2022-12-18T07:13:25;-2.70;99.90
15455;DHT22;21057;51.024;7.540;2022-12-18T07:15:52;-2.80;99.90
15455;DHT22;21057;51.024;7.540;2022-12-18T07:18:19;-2.70;99.90
15455;DHT22;21057;51.024;7.540;2022-12-18T07:20:46;-2.80;99.90
15455;DHT22;21057;51.024;7.540;2022-12-18T07:23:12;-2.70;99.90
15455;DHT22;21057;51.024;7.540;2022-12-18T07:25:41;-2.80;99.90
15455;DHT22;21057;51.024;7.540;2022-12-18T07:28:07;-2.70;99.90
15455;DHT22;21057;51.024;7.540;2022-12-18T07:30:37;-2.60;99.90
15455;DHT22;21057;51.024;7.540;2022-12-18T07:33:03;-2.60;99.90
15455;DHT22;21057;51.024;7.540;2022-12-18T07:35:30;-2.50;99.90
15455;DHT22;21057;51.024;7.540;2022-12-18T07:37:58;-2.40;99.90
15455;DHT22;21057;51.024;7.540;2022-12-18T07:40:25;-2.50;99.90
15455;DHT22;21057;51.024;7.540;2022-12-18T07:42:54;-2.60;99.90
15455;DHT22;21057;51.024;7.540;2022-12-18T07:45:21;-2.50;99.90
15455;DHT22;21057;51.024;7.540;2022-12-18T07:47:47;-2.60;99.90
15455;DHT22;21057;51.024;7.540;2022-12-18T07:50:15;-2.50;99.90
15455;DHT22;21057;51.024;7.540;2022-12-18T07:52:41;-2.40;99.90
15455;DHT22;21057;51.024;7.540;2022-12-18T07:55:08;-2.30;99.90
15455;DHT22;21057;51.024;7.540;2022-12-18T07:57:35;-2.40;99.90
15455;DHT22;21057;51.024;7.540;2022-12-18T08:00:05;-2.40;99.90
15455;DHT22;21057;51.024;7.540;2022-12-18T08:02:32;-2.30;99.90
15455;DHT22;21057;51.024;7.540;2022-12-18T08:04:59;-2.30;99.90
15455;DHT22;21057;51.024;7.540;2022-12-18T08:07:26;-2.30;99.90
15455;DHT22;21057;51.024;7.540;2022-12-18T08:09:53;-2.20;99.90
15455;DHT22;21057;51.024;7.540;2022-12-18T08:12:20;-2.20;99.90
15455;DHT22;21057;51.024;7.540;2022-12-18T08:14:46;-2.20;99.90
15455;DHT22;21057;51.024;7.540;2022-12-18T08:17:15;-2.10;99.90
15455;DHT22;21057;51.024;7.540;2022-12-18T08:19:42;-2.00;99.90
15455;DHT22;21057;51.024;7.540;2022-12-18T08:22:08;-2.10;99.90
15455;DHT22;21057;51.024;7.540;2022-12-18T08:24:35;-2.00;99.90
15455;DHT22;21057;51.024;7.540;2022-12-18T08:27:02;-1.90;99.90
15455;DHT22;21057;51.024;7.540;2022-12-18T08:29:29;-1.80;99.90
15455;DHT22;21057;51.024;7.540;2022-12-18T08:31:57;-1.90;99.90
15455;DHT22;21057;51.024;7.540;2022-12-18T08:34:25;-1.70;99.90
15455;DHT22;21057;51.024;7.540;2022-12-18T08:36:52;-1.70;99.90
15455;DHT22;21057;51.024;7.540;2022-12-18T08:39:19;-1.70;99.90
15455;DHT22;21057;51.024;7.540;2022-12-18T08:41:46;-1.70;99.90
15455;DHT22;21057;51.024;7.540;2022-12-18T08:44:33;-1.70;99.90
15455;DHT22;21057;51.024;7.540;2022-12-18T08:47:03;-1.60;99.90
15455;DHT22;21057;51.024;7.540;2022-12-18T08:49:31;-1.60;99.90
15455;DHT22;21057;51.024;7.540;2022-12-18T08:52:00;-1.50;99.90
15455;DHT22;21057;51.024;7.540;2022-12-18T08:54:31;-1.50;99.90
15455;DHT22;21057;51.024;7.540;2022-12-18T08:56:59;-1.50;99.90
15455;DHT22;21057;51.024;7.540;2022-12-18T08:59:27;-1.40;99.90
15455;DHT22;21057;51.024;7.540;2022-12-18T09:01:55;-1.40;99.90
15455;DHT22;21057;51.024;7.540;2022-12-18T09:04:22;-1.20;99.90
15455;DHT22;21057;51.024;7.540;2022-12-18T09:06:50;-1.00;99.90
15455;DHT22;21057;51.024;7.540;2022-12-18T09:09:17;-1.00;99.90
15455;DHT22;21057;51.024;7.540;2022-12-18T09:11:44;-1.00;99.90
15455;DHT22;21057;51.024;7.540;2022-12-18T09:14:11;-1.00;99.90
15455;DHT22;21057;51.024;7.540;2022-12-18T09:16:38;-0.90;99.90
15455;DHT22;21057;51.024;7.540;2022-12-18T09:19:05;-0.80;99.90
15455;DHT22;21057;51.024;7.540;2022-12-18T09:21:34;-0.70;99.90
15455;DHT22;21057;51.024;7.540;2022-12-18T09:24:02;-0.70;99.90
15455;DHT22;21057;51.024;7.540;2022-12-18T09:26:29;-0.60;99.90
15455;DHT22;21057;51.024;7.540;2022-12-18T09:28:56;-0.50;99.90
15455;DHT22;21057;51.024;7.540;2022-12-18T09:31:24;-0.50;99.90
15455;DHT22;21057;51.024;7.540;2022-12-18T09:33:51;-0.50;99.90
15455;DHT22;21057;51.024;7.540;2022-12-18T09:36:18;-0.50;99.90
15455;DHT22;21057;51.024;7.540;2022-12-18T09:38:45;-0.40;99.90
15455;DHT22;21057;51.024;7.540;2022-12-18T09:41:40;-0.60;99.90
15455;DHT22;21057;51.024;7.540;2022-12-18T09:44:20;-0.30;99.90
15455;DHT22;21057;51.024;7.540;2022-12-18T09:46:53;-0.40;99.90
15455;DHT22;21057;51.024;7.540;2022-12-18T09:49:23;-0.30;99.90
15455;DHT22;21057;51.024;7.540;2022-12-18T09:51:56;-0.30;99.90
15455;DHT22;21057;51.024;7.540;2022-12-18T09:54:32;-0.20;99.90
15455;DHT22;21057;51.024;7.540;2022-12-18T09:57:01;-0.30;99.90
15455;DHT22;21057;51.024;7.540;2022-12-18T09:59:32;-0.20;99.90
15455;DHT22;21057;51.024;7.540;2022-12-18T10:02:15;-0.10;99.90
15455;DHT22;21057;51.024;7.540;2022-12-18T10:04:43;0.00;99.90
15455;DHT22;21057;51.024;7.540;2022-12-18T10:07:15;0.20;99.90
15455;DHT22;21057;51.024;7.540;2022-12-18T10:09:50;0.40;99.90
15455;DHT22;21057;51.024;7.540;2022-12-18T10:12:25;0.40;99.90
15455;DHT22;21057;51.024;7.540;2022-12-18T10:14:58;0.60;99.90
15455;DHT22;21057;51.024;7.540;2022-12-18T10:17:31;0.70;99.90
15455;DHT22;21057;51.024;7.540;2022-12-18T10:20:05;0.80;99.90
15455;DHT22;21057;51.024;7.540;2022-12-18T10:22:43;0.80;99.90
15455;DHT22;21057;51.024;7.540;2022-12-18T10:25:20;0.90;99.90
15455;DHT22;21057;51.024;7.540;2022-12-18T10:27:52;0.90;99.90
15455;DHT22;21057;51.024;7.540;2022-12-18T10:30:22;0.90;99.90
15455;DHT22;21057;51.024;7.540;2022-12-18T10:32:49;0.90;99.90
15455;DHT22;21057;51.024;7.540;2022-12-18T10:35:19;1.00;99.90
15455;DHT22;21057;51.024;7.540;2022-12-18T10:38:00;1.00;99.90
15455;DHT22;21057;51.024;7.540;2022-12-18T10:40:28;1.20;99.90
15455;DHT22;21057;51.024;7.540;2022-12-18T10:43:12;1.30;99.90
15455;DHT22;21057;51.024;7.540;2022-12-18T10:45:40;1.40;99.90
15455;DHT22;21057;51.024;7.540;2022-12-18T10:48:18;1.40;99.90
15455;DHT22;21057;51.024;7.540;2022-12-18T10:50:49;1.20;99.90
15455;DHT22;21057;51.024;7.540;2022-12-18T10:53:20;1.20;99.90
15455;DHT22;21057;51.024;7.540;2022-12-18T10:55:48;1.30;99.90
15455;DHT22;21057;51.024;7.540;2022-12-18T10:58:23;1.30;99.90
15455;DHT22;21057;51.024;7.540;2022-12-18T11:01:08;1.40;99.90
15455;DHT22;21057;51.024;7.540;2022-12-18T11:03:37;1.30;99.90
15455;DHT22;21057;51.024;7.540;2022-12-18T11:06:08;1.50;99.90
15455;DHT22;21057;51.024;7.540;2022-12-18T11:08:36;1.60;99.90
15455;DHT22;21057;51.024;7.540;2022-12-18T11:11:09;1.60;99.90
15455;DHT22;21057;51.024;7.540;2022-12-18T11:13:54;1.80;99.90
15455;DHT22;21057;51.024;7.540;2022-12-18T11:16:25;1.80;99.90
15455;DHT22;21057;51.024;7.540;2022-12-18T11:18:52;1.70;99.90
15455;DHT22;21057;51.024;7.540;2022-12-18T11:21:19;1.70;99.90
15455;DHT22;21057;51.024;7.540;2022-12-18T11:23:49;1.90;99.90
15455;DHT22;21057;51.024;7.540;2022-12-18T11:26:16;1.90;99.90
15455;DHT22;21057;51.024;7.540;2022-12-18T11:28:46;2.10;99.90
15455;DHT22;21057;51.024;7.540;2022-12-18T11:31:23;2.10;99.90
15455;DHT22;21057;51.024;7.540;2022-12-18T11:34:04;2.20;99.90
15455;DHT22;21057;51.024;7.540;2022-12-18T11:36:34;2.10;99.90
15455;DHT22;21057;51.024;7.540;2022-12-18T11:39:17;2.10;99.90
15455;DHT22;21057;51.024;7.540;2022-12-18T11:41:50;2.10;99.90
15455;DHT22;21057;51.024;7.540;2022-12-18T11:44:43;2.00;99.90
15455;DHT22;21057;51.024;7.540;2022-12-18T11:47:19;2.10;99.90
15455;DHT22;21057;51.024;7.540;2022-12-18T11:49:49;2.20;99.90
15455;DHT22;21057;51.024;7.540;2022-12-18T11:52:19;2.30;99.90
15455;DHT22;21057;51.024;7.540;2022-12-18T11:54:51;2.30;99.90
15455;DHT22;21057;51.024;7.540;2022-12-18T11:57:27;2.10;99.90
15455;DHT22;21057;51.024;7.540;2022-12-18T12:00:07;2.20;99.90
15455;DHT22;21057;51.024;7.540;2022-12-18T12:02:52;2.20;99.90
15455;DHT22;21057;51.024;7.540;2022-12-18T12:05:49;2.30;99.90
15455;DHT22;21057;51.024;7.540;2022-12-18T12:08:24;2.20;99.90
15455;DHT22;21057;51.024;7.540;2022-12-18T12:11:01;2.30;99.90
15455;DHT22;21057;51.024;7.540;2022-12-18T12:13:39;2.40;99.90
15455;DHT22;21057;51.024;7.540;2022-12-18T12:16:15;2.40;99.90
15455;DHT22;21057;51.024;7.540;2022-12-18T12:19:02;2.40;99.90
15455;DHT22;21057;51.024;7.540;2022-12-18T12:21:36;2.40;99.90
15455;DHT22;21057;51.024;7.540;2022-12-18T12:24:15;2.30;99.90
15455;DHT22;21057;51.024;7.540;2022-12-18T12:26:51;2.40;99.90
15455;DHT22;21057;51.024;7.540;2022-12-18T12:29:31;2.50;99.90
15455;DHT22;21057;51.024;7.540;2022-12-18T12:32:22;2.40;99.90
15455;DHT22;21057;51.024;7.540;2022-12-18T12:34:57;2.40;99.90
15455;DHT22;21057;51.024;7.540;2022-12-18T12:37:38;2.40;99.90
15455;DHT22;21057;51.024;7.540;2022-12-18T12:40:12;2.30;99.90
15455;DHT22;21057;51.024;7.540;2022-12-18T12:42:44;2.30;99.90
15455;DHT22;21057;51.024;7.540;2022-12-18T12:45:34;2.30;99.90
15455;DHT22;21057;51.024;7.540;2022-12-18T12:48:06;2.40;99.90
15455;DHT22;21057;51.024;7.540;2022-12-18T12:50:37;2.40;99.90
15455;DHT22;21057;51.024;7.540;2022-12-18T12:53:08;2.00;99.90
15455;DHT22;21057;51.024;7.540;2022-12-18T12:55:37;1.90;99.90
15455;DHT22;21057;51.024;7.540;2022-12-18T12:58:14;1.90;99.90
15455;DHT22;21057;51.024;7.540;2022-12-18T13:00:54;2.00;99.90
15455;DHT22;21057;51.024;7.540;2022-12-18T13:03:35;2.10;99.90
15455;DHT22;21057;51.024;7.540;2022-12-18T13:06:10;1.90;99.90
15455;DHT22;21057;51.024;7.540;2022-12-18T13:08:54;1.80;99.90
15455;DHT22;21057;51.024;7.540;2022-12-18T13:11:35;1.60;99.90
15455;DHT22;21057;51.024;7.540;2022-12-18T13:14:23;1.50;99.90
15455;DHT22;21057;51.024;7.540;2022-12-18T13:16:50;1.60;99.90
15455;DHT22;21057;51.024;7.540;2022-12-18T13:19:25;1.60;99.90
15455;DHT22;21057;51.024;7.540;2022-12-18T13:21:54;1.70;99.90
15455;DHT22;21057;51.024;7.540;2022-12-18T13:24:25;1.60;99.90
15455;DHT22;21057;51.024;7.540;2022-12-18T13:26:53;1.50;99.90
15455;DHT22;21057;51.024;7.540;2022-12-18T13:29:42;1.30;99.90
15455;DHT22;21057;51.024;7.540;2022-12-18T13:32:26;1.40;99.90
15455;DHT22;21057;51.024;7.540;2022-12-18T13:38:21;1.50;99.90
15455;DHT22;21057;51.024;7.540;2022-12-18T13:40:54;1.60;99.90
15455;DHT22;21057;51.024;7.540;2022-12-18T13:43:31;1.50;99.90
15455;DHT22;21057;51.024;7.540;2022-12-18T13:46:01;1.50;99.90
15455;DHT22;21057;51.024;7.540;2022-12-18T13:48:31;1.60;99.90
15455;DHT22;21057;51.024;7.540;2022-12-18T13:51:01;1.70;99.90
15455;DHT22;21057;51.024;7.540;2022-12-18T13:53:34;1.70;99.90
15455;DHT22;21057;51.024;7.540;2022-12-18T13:56:03;1.60;99.90
15455;DHT22;21057;51.024;7.540;2022-12-18T13:58:30;1.40;99.90
15455;DHT22;21057;51.024;7.540;2022-12-18T14:00:57;1.30;99.90
15455;DHT22;21057;51.024;7.540;2022-12-18T14:03:28;1.30;99.90
15455;DHT22;21057;51.024;7.540;2022-12-18T14:06:00;1.10;99.90
15455;DHT22;21057;51.024;7.540;2022-12-18T14:08:34;1.10;99.90
15455;DHT22;21057;51.024;7.540;2022-12-18T14:11:03;1.10;99.90
15455;DHT22;21057;51.024;7.540;2022-12-18T14:13:35;1.20;99.90
15455;DHT22;21057;51.024;7.540;2022-12-18T14:16:04;1.10;99.90
15455;DHT22;21057;51.024;7.540;2022-12-18T14:18:38;1.10;99.90
15455;DHT22;21057;51.024;7.540;2022-12-18T14:21:18;1.20;99.90
15455;DHT22;21057;51.024;7.540;2022-12-18T14:23:47;1.00;99.90
15455;DHT22;21057;51.024;7.540;2022-12-18T14:26:25;1.10;99.90
15455;DHT22;21057;51.024;7.540;2022-12-18T14:28:54;1.00;99.90
15455;DHT22;21057;51.024;7.540;2022-12-18T14:31:23;0.90;99.90
15455;DHT22;21057;51.024;7.540;2022-12-18T14:33:50;0.90;99.90
15455;DHT22;21057;51.024;7.540;2022-12-18T14:36:19;0.80;99.90
15455;DHT22;21057;51.024;7.540;2022-12-18T14:38:51;0.60;99.90
15455;DHT22;21057;51.024;7.540;2022-12-18T14:41:20;0.60;99.90
15455;DHT22;21057;51.024;7.540;2022-12-18T14:43:49;0.60;99.90
15455;DHT22;21057;51.024;7.540;2022-12-18T14:46:29;0.40;99.90
15455;DHT22;21057;51.024;7.540;2022-12-18T14:48:56;0.30;99.90
15455;DHT22;21057;51.024;7.540;2022-12-18T14:51:25;0.30;99.90
15455;DHT22;21057;51.024;7.540;2022-12-18T14:53:56;0.30;99.90
15455;DHT22;21057;51.024;7.540;2022-12-18T14:56:25;0.40;99.90
15455;DHT22;21057;51.024;7.540;2022-12-18T14:58:54;0.20;99.90
15455;DHT22;21057;51.024;7.540;2022-12-18T15:01:27;0.10;99.90
15455;DHT22;21057;51.024;7.540;2022-12-18T15:03:55;0.10;99.90
15455;DHT22;21057;51.024;7.540;2022-12-18T15:06:33;-0.10;99.90
15455;DHT22;21057;51.024;7.540;2022-12-18T15:09:04;-0.10;99.90
15455;DHT22;21057;51.024;7.540;2022-12-18T15:11:43;0.00;99.90
15455;DHT22;21057;51.024;7.540;2022-12-18T15:14:28;-0.10;99.90
15455;DHT22;21057;51.024;7.540;2022-12-18T15:16:58;-0.40;99.90
15455;DHT22;21057;51.024;7.540;2022-12-18T15:19:34;-0.40;99.90
15455;DHT22;21057;51.024;7.540;2022-12-18T15:22:02;-0.20;99.90
15455;DHT22;21057;51.024;7.540;2022-12-18T15:24:32;0.00;99.90
15455;DHT22;21057;51.024;7.540;2022-12-18T15:26:59;0.00;99.90
15455;DHT22;21057;51.024;7.540;2022-12-18T15:29:26;-0.30;99.90
15455;DHT22;21057;51.024;7.540;2022-12-18T15:32:02;-0.20;99.90
15455;DHT22;21057;51.024;7.540;2022-12-18T15:34:30;-0.20;99.90
15455;DHT22;21057;51.024;7.540;2022-12-18T15:36:57;-0.20;99.90
15455;DHT22;21057;51.024;7.540;2022-12-18T15:39:24;-0.20;99.90
15455;DHT22;21057;51.024;7.540;2022-12-18T15:41:52;0.00;99.90
15455;DHT22;21057;51.024;7.540;2022-12-18T15:44:37;-0.20;99.90
15455;DHT22;21057;51.024;7.540;2022-12-18T15:47:10;-0.10;99.90
15455;DHT22;21057;51.024;7.540;2022-12-18T15:49:37;-0.30;99.90
15455;DHT22;21057;51.024;7.540;2022-12-18T15:52:05;-0.10;99.90
15455;DHT22;21057;51.024;7.540;2022-12-18T15:54:32;-0.40;99.90
15455;DHT22;21057;51.024;7.540;2022-12-18T15:57:18;-0.30;99.90
15455;DHT22;21057;51.024;7.540;2022-12-18T15:59:52;-0.30;99.90
15455;DHT22;21057;51.024;7.540;2022-12-18T16:02:20;-0.20;99.90